sensor_id;sensor_type;location;lat;lon;timestamp;P1;durP1;ratioP1;P2;durP2;ratioP2
42724;SDS011;28369;44.046;23.014;2023-05-07T00:00:18;9.63;;;3.08;;
42724;SDS011;28369;44.046;23.014;2023-05-07T00:02:44;5.55;;;3.35;;
42724;SDS011;28369;44.046;23.014;2023-05-07T00:05:10;11.63;;;3.28;;
42724;SDS011;28369;44.046;23.014;2023-05-07T00:07:36;7.70;;;2.92;;
42724;SDS011;28369;44.046;23.014;2023-05-07T00:10:02;3.72;;;2.97;;
42724;SDS011;28369;44.046;23.014;2023-05-07T00:12:28;7.53;;;3.13;;
42724;SDS011;28369;44.046;23.014;2023-05-07T00:14:56;10.57;;;3.40;;
42724;SDS011;28369;44.046;23.014;2023-05-07T00:17:22;7.35;;;3.03;;
42724;SDS011;28369;44.046;23.014;2023-05-07T00:19:47;5.10;;;2.88;;
42724;SDS011;28369;44.046;23.014;2023-05-07T00:22:13;16.02;;;3.70;;
42724;SDS011;28369;44.046;23.014;2023-05-07T00:24:38;9.50;;;3.05;;
42724;SDS011;28369;44.046;23.014;2023-05-07T00:27:04;6.90;;;3.70;;
42724;SDS011;28369;44.046;23.014;2023-05-07T00:29:30;8.82;;;3.95;;
42724;SDS011;28369;44.046;23.014;2023-05-07T00:31:55;6.88;;;3.20;;
42724;SDS011;28369;44.046;23.014;2023-05-07T00:34:21;11.93;;;3.70;;
42724;SDS011;28369;44.046;23.014;2023-05-07T00:36:46;9.82;;;3.92;;
42724;SDS011;28369;44.046;23.014;2023-05-07T00:39:11;8.00;;;3.45;;
42724;SDS011;28369;44.046;23.014;2023-05-07T00:41:37;4.95;;;3.55;;
42724;SDS011;28369;44.046;23.014;2023-05-07T00:44:02;7.55;;;3.67;;
42724;SDS011;28369;44.046;23.014;2023-05-07T00:46:28;8.52;;;3.10;;
42724;SDS011;28369;44.046;23.014;2023-05-07T00:48:56;9.30;;;3.08;;
42724;SDS011;28369;44.046;23.014;2023-05-07T00:51:22;7.15;;;3.00;;
42724;SDS011;28369;44.046;23.014;2023-05-07T00:53:51;16.00;;;2.80;;
42724;SDS011;28369;44.046;23.014;2023-05-07T00:56:17;4.38;;;2.90;;
42724;SDS011;28369;44.046;23.014;2023-05-07T00:58:43;6.10;;;3.17;;
42724;SDS011;28369;44.046;23.014;2023-05-07T01:01:09;7.75;;;3.05;;
42724;SDS011;28369;44.046;23.014;2023-05-07T01:03:34;4.95;;;2.67;;
42724;SDS011;28369;44.046;23.014;2023-05-07T01:06:00;5.63;;;2.50;;
42724;SDS011;28369;44.046;23.014;2023-05-07T01:08:27;8.93;;;2.80;;
42724;SDS011;28369;44.046;23.014;2023-05-07T01:10:55;3.30;;;2.47;;
42724;SDS011;28369;44.046;23.014;2023-05-07T01:13:22;4.40;;;2.42;;
42724;SDS011;28369;44.046;23.014;2023-05-07T01:15:49;9.00;;;2.80;;
42724;SDS011;28369;44.046;23.014;2023-05-07T01:18:15;4.80;;;2.28;;
42724;SDS011;28369;44.046;23.014;2023-05-07T01:20:40;4.50;;;2.40;;
42724;SDS011;28369;44.046;23.014;2023-05-07T01:23:06;5.93;;;2.30;;
42724;SDS011;28369;44.046;23.014;2023-05-07T01:25:32;5.05;;;2.28;;
42724;SDS011;28369;44.046;23.014;2023-05-07T01:27:58;4.75;;;2.50;;
42724;SDS011;28369;44.046;23.014;2023-05-07T01:30:27;4.68;;;2.63;;
42724;SDS011;28369;44.046;23.014;2023-05-07T01:33:02;5.93;;;2.58;;
42724;SDS011;28369;44.046;23.014;2023-05-07T01:35:36;3.90;;;2.40;;
42724;SDS011;28369;44.046;23.014;2023-05-07T01:38:04;2.70;;;2.50;;
42724;SDS011;28369;44.046;23.014;2023-05-07T01:40:31;4.90;;;2.40;;
42724;SDS011;28369;44.046;23.014;2023-05-07T01:42:56;10.40;;;2.38;;
42724;SDS011;28369;44.046;23.014;2023-05-07T01:45:22;4.15;;;2.30;;
42724;SDS011;28369;44.046;23.014;2023-05-07T01:47:49;4.05;;;2.53;;
42724;SDS011;28369;44.046;23.014;2023-05-07T01:50:15;4.93;;;2.20;;
42724;SDS011;28369;44.046;23.014;2023-05-07T01:52:42;11.23;;;2.33;;
42724;SDS011;28369;44.046;23.014;2023-05-07T01:55:08;6.07;;;2.40;;
42724;SDS011;28369;44.046;23.014;2023-05-07T01:57:33;7.25;;;2.58;;
42724;SDS011;28369;44.046;23.014;2023-05-07T01:59:59;7.40;;;2.33;;
42724;SDS011;28369;44.046;23.014;2023-05-07T02:02:24;5.95;;;2.95;;
42724;SDS011;28369;44.046;23.014;2023-05-07T02:04:50;2.83;;;2.03;;
42724;SDS011;28369;44.046;23.014;2023-05-07T02:07:15;3.10;;;2.25;;
42724;SDS011;28369;44.046;23.014;2023-05-07T02:09:41;4.43;;;2.40;;
42724;SDS011;28369;44.046;23.014;2023-05-07T02:12:06;3.63;;;2.25;;
42724;SDS011;28369;44.046;23.014;2023-05-07T02:14:32;5.25;;;2.13;;
42724;SDS011;28369;44.046;23.014;2023-05-07T02:16:57;6.80;;;2.25;;
42724;SDS011;28369;44.046;23.014;2023-05-07T02:19:23;4.65;;;2.50;;
42724;SDS011;28369;44.046;23.014;2023-05-07T02:21:48;5.57;;;2.67;;
42724;SDS011;28369;44.046;23.014;2023-05-07T02:24:14;7.07;;;2.38;;
42724;SDS011;28369;44.046;23.014;2023-05-07T02:26:40;8.40;;;2.78;;
42724;SDS011;28369;44.046;23.014;2023-05-07T02:29:06;6.13;;;2.67;;
42724;SDS011;28369;44.046;23.014;2023-05-07T02:31:32;6.75;;;2.35;;
42724;SDS011;28369;44.046;23.014;2023-05-07T02:33:59;5.15;;;2.72;;
42724;SDS011;28369;44.046;23.014;2023-05-07T02:36:25;5.30;;;2.75;;
42724;SDS011;28369;44.046;23.014;2023-05-07T02:38:51;6.07;;;3.40;;
42724;SDS011;28369;44.046;23.014;2023-05-07T02:41:17;4.57;;;2.90;;
42724;SDS011;28369;44.046;23.014;2023-05-07T02:43:42;18.55;;;2.97;;
42724;SDS011;28369;44.046;23.014;2023-05-07T02:46:08;13.23;;;3.58;;
42724;SDS011;28369;44.046;23.014;2023-05-07T02:48:34;4.00;;;2.50;;
42724;SDS011;28369;44.046;23.014;2023-05-07T02:51:00;6.13;;;3.42;;
42724;SDS011;28369;44.046;23.014;2023-05-07T02:53:26;6.47;;;3.33;;
42724;SDS011;28369;44.046;23.014;2023-05-07T02:55:55;4.25;;;3.15;;
42724;SDS011;28369;44.046;23.014;2023-05-07T02:58:22;6.05;;;3.42;;
42724;SDS011;28369;44.046;23.014;2023-05-07T03:00:47;5.68;;;3.10;;
42724;SDS011;28369;44.046;23.014;2023-05-07T03:03:13;6.22;;;3.08;;
42724;SDS011;28369;44.046;23.014;2023-05-07T03:05:39;7.35;;;3.72;;
42724;SDS011;28369;44.046;23.014;2023-05-07T03:08:04;7.03;;;3.50;;
42724;SDS011;28369;44.046;23.014;2023-05-07T03:10:30;12.77;;;3.60;;
42724;SDS011;28369;44.046;23.014;2023-05-07T03:12:55;6.57;;;3.50;;
42724;SDS011;28369;44.046;23.014;2023-05-07T03:15:21;8.10;;;3.60;;
42724;SDS011;28369;44.046;23.014;2023-05-07T03:17:47;5.07;;;3.22;;
42724;SDS011;28369;44.046;23.014;2023-05-07T03:20:13;8.30;;;3.35;;
42724;SDS011;28369;44.046;23.014;2023-05-07T03:22:38;5.80;;;3.42;;
42724;SDS011;28369;44.046;23.014;2023-05-07T03:25:05;9.35;;;3.78;;
42724;SDS011;28369;44.046;23.014;2023-05-07T03:27:31;7.80;;;3.88;;
42724;SDS011;28369;44.046;23.014;2023-05-07T03:29:56;6.22;;;3.50;;
42724;SDS011;28369;44.046;23.014;2023-05-07T03:32:22;8.13;;;3.38;;
42724;SDS011;28369;44.046;23.014;2023-05-07T03:34:48;5.65;;;3.10;;
42724;SDS011;28369;44.046;23.014;2023-05-07T03:37:13;4.88;;;2.92;;
42724;SDS011;28369;44.046;23.014;2023-05-07T03:39:39;5.78;;;3.40;;
42724;SDS011;28369;44.046;23.014;2023-05-07T03:42:04;6.55;;;3.08;;
42724;SDS011;28369;44.046;23.014;2023-05-07T03:44:30;9.27;;;3.28;;
42724;SDS011;28369;44.046;23.014;2023-05-07T03:46:55;6.60;;;3.20;;
42724;SDS011;28369;44.046;23.014;2023-05-07T03:49:21;9.50;;;3.85;;
42724;SDS011;28369;44.046;23.014;2023-05-07T03:51:46;10.27;;;3.50;;
42724;SDS011;28369;44.046;23.014;2023-05-07T03:54:12;6.00;;;3.30;;
42724;SDS011;28369;44.046;23.014;2023-05-07T03:56:37;5.20;;;3.67;;
42724;SDS011;28369;44.046;23.014;2023-05-07T03:59:03;5.32;;;3.63;;
42724;SDS011;28369;44.046;23.014;2023-05-07T04:01:28;6.38;;;3.50;;
42724;SDS011;28369;44.046;23.014;2023-05-07T04:03:54;7.07;;;3.75;;
42724;SDS011;28369;44.046;23.014;2023-05-07T04:06:19;5.88;;;4.03;;
42724;SDS011;28369;44.046;23.014;2023-05-07T04:08:45;9.45;;;3.67;;
42724;SDS011;28369;44.046;23.014;2023-05-07T04:11:11;5.22;;;3.50;;
42724;SDS011;28369;44.046;23.014;2023-05-07T04:13:36;6.53;;;3.67;;
42724;SDS011;28369;44.046;23.014;2023-05-07T04:16:02;5.57;;;3.65;;
42724;SDS011;28369;44.046;23.014;2023-05-07T04:18:29;10.18;;;3.80;;
42724;SDS011;28369;44.046;23.014;2023-05-07T04:20:54;9.93;;;3.80;;
42724;SDS011;28369;44.046;23.014;2023-05-07T04:23:20;9.55;;;4.43;;
42724;SDS011;28369;44.046;23.014;2023-05-07T04:25:46;8.27;;;4.32;;
42724;SDS011;28369;44.046;23.014;2023-05-07T04:28:11;7.65;;;4.05;;
42724;SDS011;28369;44.046;23.014;2023-05-07T04:30:37;8.07;;;4.47;;
42724;SDS011;28369;44.046;23.014;2023-05-07T04:33:03;11.02;;;4.28;;
42724;SDS011;28369;44.046;23.014;2023-05-07T04:35:29;9.98;;;3.80;;
42724;SDS011;28369;44.046;23.014;2023-05-07T04:37:54;8.13;;;4.07;;
42724;SDS011;28369;44.046;23.014;2023-05-07T04:40:20;6.32;;;4.05;;
42724;SDS011;28369;44.046;23.014;2023-05-07T04:42:45;9.13;;;4.15;;
42724;SDS011;28369;44.046;23.014;2023-05-07T04:45:11;5.47;;;4.40;;
42724;SDS011;28369;44.046;23.014;2023-05-07T04:47:37;9.82;;;4.47;;
42724;SDS011;28369;44.046;23.014;2023-05-07T04:50:03;8.75;;;4.28;;
42724;SDS011;28369;44.046;23.014;2023-05-07T04:52:29;11.75;;;4.18;;
42724;SDS011;28369;44.046;23.014;2023-05-07T04:54:55;7.47;;;3.40;;
42724;SDS011;28369;44.046;23.014;2023-05-07T04:57:20;9.70;;;4.03;;
42724;SDS011;28369;44.046;23.014;2023-05-07T04:59:46;11.95;;;4.35;;
42724;SDS011;28369;44.046;23.014;2023-05-07T05:02:11;15.20;;;4.63;;
42724;SDS011;28369;44.046;23.014;2023-05-07T05:04:37;6.65;;;3.83;;
42724;SDS011;28369;44.046;23.014;2023-05-07T05:07:02;12.75;;;4.13;;
42724;SDS011;28369;44.046;23.014;2023-05-07T05:09:31;8.63;;;3.83;;
42724;SDS011;28369;44.046;23.014;2023-05-07T05:11:56;4.90;;;3.80;;
42724;SDS011;28369;44.046;23.014;2023-05-07T05:14:22;6.70;;;4.00;;
42724;SDS011;28369;44.046;23.014;2023-05-07T05:16:47;8.82;;;3.35;;
42724;SDS011;28369;44.046;23.014;2023-05-07T05:19:13;14.38;;;3.80;;
42724;SDS011;28369;44.046;23.014;2023-05-07T05:21:38;8.55;;;3.90;;
42724;SDS011;28369;44.046;23.014;2023-05-07T05:24:04;5.97;;;3.42;;
42724;SDS011;28369;44.046;23.014;2023-05-07T05:26:29;6.43;;;4.07;;
42724;SDS011;28369;44.046;23.014;2023-05-07T05:28:55;10.18;;;4.30;;
42724;SDS011;28369;44.046;23.014;2023-05-07T05:31:20;6.82;;;3.90;;
42724;SDS011;28369;44.046;23.014;2023-05-07T05:33:46;9.30;;;3.90;;
42724;SDS011;28369;44.046;23.014;2023-05-07T05:36:11;7.05;;;3.72;;
42724;SDS011;28369;44.046;23.014;2023-05-07T05:38:38;7.93;;;3.85;;
42724;SDS011;28369;44.046;23.014;2023-05-07T05:41:04;5.30;;;3.92;;
42724;SDS011;28369;44.046;23.014;2023-05-07T05:43:30;7.25;;;4.05;;
42724;SDS011;28369;44.046;23.014;2023-05-07T05:45:56;9.20;;;3.83;;
42724;SDS011;28369;44.046;23.014;2023-05-07T05:48:22;6.47;;;4.07;;
42724;SDS011;28369;44.046;23.014;2023-05-07T05:50:48;5.97;;;3.60;;
42724;SDS011;28369;44.046;23.014;2023-05-07T05:53:13;6.82;;;4.22;;
42724;SDS011;28369;44.046;23.014;2023-05-07T05:55:39;8.20;;;4.28;;
42724;SDS011;28369;44.046;23.014;2023-05-07T05:58:05;10.80;;;4.80;;
42724;SDS011;28369;44.046;23.014;2023-05-07T06:00:30;7.68;;;4.25;;
42724;SDS011;28369;44.046;23.014;2023-05-07T06:02:56;12.38;;;4.57;;
42724;SDS011;28369;44.046;23.014;2023-05-07T06:05:22;8.45;;;4.88;;
42724;SDS011;28369;44.046;23.014;2023-05-07T06:07:47;7.07;;;4.65;;
42724;SDS011;28369;44.046;23.014;2023-05-07T06:10:13;11.77;;;4.63;;
42724;SDS011;28369;44.046;23.014;2023-05-07T06:12:39;5.68;;;4.35;;
42724;SDS011;28369;44.046;23.014;2023-05-07T06:15:04;6.45;;;4.45;;
42724;SDS011;28369;44.046;23.014;2023-05-07T06:17:30;5.70;;;4.00;;
42724;SDS011;28369;44.046;23.014;2023-05-07T06:19:56;11.30;;;4.40;;
42724;SDS011;28369;44.046;23.014;2023-05-07T06:22:21;9.73;;;4.50;;
42724;SDS011;28369;44.046;23.014;2023-05-07T06:24:47;6.90;;;3.65;;
42724;SDS011;28369;44.046;23.014;2023-05-07T06:27:12;8.27;;;3.42;;
42724;SDS011;28369;44.046;23.014;2023-05-07T06:29:38;7.90;;;3.67;;
42724;SDS011;28369;44.046;23.014;2023-05-07T06:34:34;8.18;;;4.13;;
42724;SDS011;28369;44.046;23.014;2023-05-07T06:37:00;11.73;;;4.07;;
42724;SDS011;28369;44.046;23.014;2023-05-07T06:39:26;9.07;;;4.03;;
42724;SDS011;28369;44.046;23.014;2023-05-07T06:41:51;5.93;;;3.67;;
42724;SDS011;28369;44.046;23.014;2023-05-07T06:44:16;5.10;;;3.78;;
42724;SDS011;28369;44.046;23.014;2023-05-07T06:46:42;9.45;;;3.85;;
42724;SDS011;28369;44.046;23.014;2023-05-07T06:49:07;8.88;;;3.72;;
42724;SDS011;28369;44.046;23.014;2023-05-07T06:51:33;10.32;;;3.65;;
42724;SDS011;28369;44.046;23.014;2023-05-07T06:53:58;9.18;;;3.45;;
42724;SDS011;28369;44.046;23.014;2023-05-07T06:56:24;7.35;;;3.95;;
42724;SDS011;28369;44.046;23.014;2023-05-07T06:58:50;6.78;;;3.33;;
42724;SDS011;28369;44.046;23.014;2023-05-07T07:01:15;10.05;;;3.53;;
42724;SDS011;28369;44.046;23.014;2023-05-07T07:03:41;10.73;;;3.95;;
42724;SDS011;28369;44.046;23.014;2023-05-07T07:06:06;6.10;;;3.28;;
42724;SDS011;28369;44.046;23.014;2023-05-07T07:08:32;10.18;;;3.28;;
42724;SDS011;28369;44.046;23.014;2023-05-07T07:10:57;6.93;;;3.33;;
42724;SDS011;28369;44.046;23.014;2023-05-07T07:13:23;5.57;;;3.38;;
42724;SDS011;28369;44.046;23.014;2023-05-07T07:15:48;7.82;;;3.90;;
42724;SDS011;28369;44.046;23.014;2023-05-07T07:18:14;8.57;;;4.10;;
42724;SDS011;28369;44.046;23.014;2023-05-07T07:20:40;7.88;;;3.40;;
42724;SDS011;28369;44.046;23.014;2023-05-07T07:23:05;12.82;;;3.70;;
42724;SDS011;28369;44.046;23.014;2023-05-07T07:25:31;13.75;;;4.20;;
42724;SDS011;28369;44.046;23.014;2023-05-07T07:27:56;6.53;;;3.75;;
42724;SDS011;28369;44.046;23.014;2023-05-07T07:30:22;7.60;;;3.42;;
42724;SDS011;28369;44.046;23.014;2023-05-07T07:32:48;8.57;;;3.83;;
42724;SDS011;28369;44.046;23.014;2023-05-07T07:35:13;12.38;;;4.00;;
42724;SDS011;28369;44.046;23.014;2023-05-07T07:37:38;9.45;;;4.70;;
42724;SDS011;28369;44.046;23.014;2023-05-07T07:40:04;8.02;;;3.40;;
42724;SDS011;28369;44.046;23.014;2023-05-07T07:42:30;4.88;;;3.55;;
42724;SDS011;28369;44.046;23.014;2023-05-07T07:44:56;4.97;;;3.25;;
42724;SDS011;28369;44.046;23.014;2023-05-07T07:47:22;17.35;;;3.92;;
42724;SDS011;28369;44.046;23.014;2023-05-07T07:49:47;7.15;;;3.55;;
42724;SDS011;28369;44.046;23.014;2023-05-07T07:52:13;5.18;;;3.35;;
42724;SDS011;28369;44.046;23.014;2023-05-07T07:54:38;9.23;;;3.17;;
42724;SDS011;28369;44.046;23.014;2023-05-07T07:57:04;9.07;;;3.08;;
42724;SDS011;28369;44.046;23.014;2023-05-07T07:59:30;7.80;;;3.47;;
42724;SDS011;28369;44.046;23.014;2023-05-07T08:01:56;5.80;;;3.50;;
42724;SDS011;28369;44.046;23.014;2023-05-07T08:04:22;8.88;;;3.15;;
42724;SDS011;28369;44.046;23.014;2023-05-07T08:06:48;9.68;;;3.72;;
42724;SDS011;28369;44.046;23.014;2023-05-07T08:09:13;7.90;;;3.53;;
42724;SDS011;28369;44.046;23.014;2023-05-07T08:11:39;5.88;;;3.40;;
42724;SDS011;28369;44.046;23.014;2023-05-07T08:14:05;9.70;;;3.53;;
42724;SDS011;28369;44.046;23.014;2023-05-07T08:16:30;8.15;;;3.25;;
42724;SDS011;28369;44.046;23.014;2023-05-07T08:18:56;12.68;;;3.50;;
42724;SDS011;28369;44.046;23.014;2023-05-07T08:21:22;6.13;;;2.97;;
42724;SDS011;28369;44.046;23.014;2023-05-07T08:23:47;7.22;;;3.20;;
42724;SDS011;28369;44.046;23.014;2023-05-07T08:26:13;13.80;;;6.03;;
42724;SDS011;28369;44.046;23.014;2023-05-07T08:28:38;17.70;;;8.27;;
42724;SDS011;28369;44.046;23.014;2023-05-07T08:31:04;8.65;;;3.50;;
42724;SDS011;28369;44.046;23.014;2023-05-07T08:33:30;11.13;;;3.70;;
42724;SDS011;28369;44.046;23.014;2023-05-07T08:35:56;5.88;;;2.90;;
42724;SDS011;28369;44.046;23.014;2023-05-07T08:38:22;6.63;;;3.20;;
42724;SDS011;28369;44.046;23.014;2023-05-07T08:40:47;8.15;;;2.90;;
42724;SDS011;28369;44.046;23.014;2023-05-07T08:43:13;8.93;;;2.90;;
42724;SDS011;28369;44.046;23.014;2023-05-07T08:45:40;5.75;;;3.10;;
42724;SDS011;28369;44.046;23.014;2023-05-07T08:48:14;10.73;;;4.75;;
42724;SDS011;28369;44.046;23.014;2023-05-07T08:50:40;4.05;;;3.00;;
42724;SDS011;28369;44.046;23.014;2023-05-07T08:53:06;6.13;;;2.95;;
42724;SDS011;28369;44.046;23.014;2023-05-07T08:55:32;10.43;;;3.75;;
42724;SDS011;28369;44.046;23.014;2023-05-07T08:57:58;5.07;;;3.33;;
42724;SDS011;28369;44.046;23.014;2023-05-07T09:00:24;6.95;;;3.03;;
42724;SDS011;28369;44.046;23.014;2023-05-07T09:02:50;7.10;;;3.03;;
42724;SDS011;28369;44.046;23.014;2023-05-07T09:05:15;6.53;;;3.33;;
42724;SDS011;28369;44.046;23.014;2023-05-07T09:07:41;11.23;;;3.22;;
42724;SDS011;28369;44.046;23.014;2023-05-07T09:10:07;8.52;;;3.03;;
42724;SDS011;28369;44.046;23.014;2023-05-07T09:12:33;10.02;;;3.22;;
42724;SDS011;28369;44.046;23.014;2023-05-07T09:15:00;7.03;;;2.83;;
42724;SDS011;28369;44.046;23.014;2023-05-07T09:17:26;11.00;;;3.40;;
42724;SDS011;28369;44.046;23.014;2023-05-07T09:19:51;7.93;;;2.45;;
42724;SDS011;28369;44.046;23.014;2023-05-07T09:22:19;4.20;;;2.63;;
42724;SDS011;28369;44.046;23.014;2023-05-07T09:24:49;7.00;;;2.40;;
42724;SDS011;28369;44.046;23.014;2023-05-07T09:27:15;5.10;;;2.60;;
42724;SDS011;28369;44.046;23.014;2023-05-07T09:29:41;6.07;;;3.22;;
42724;SDS011;28369;44.046;23.014;2023-05-07T09:32:07;4.85;;;2.80;;
42724;SDS011;28369;44.046;23.014;2023-05-07T09:34:34;7.05;;;4.05;;
42724;SDS011;28369;44.046;23.014;2023-05-07T09:37:03;10.10;;;3.50;;
42724;SDS011;28369;44.046;23.014;2023-05-07T09:39:42;9.45;;;4.18;;
42724;SDS011;28369;44.046;23.014;2023-05-07T09:42:09;7.07;;;2.97;;
42724;SDS011;28369;44.046;23.014;2023-05-07T09:44:36;6.50;;;3.17;;
42724;SDS011;28369;44.046;23.014;2023-05-07T09:47:04;5.97;;;2.70;;
42724;SDS011;28369;44.046;23.014;2023-05-07T09:49:33;6.55;;;3.00;;
42724;SDS011;28369;44.046;23.014;2023-05-07T09:52:01;4.28;;;2.95;;
42724;SDS011;28369;44.046;23.014;2023-05-07T09:54:27;4.07;;;2.47;;
42724;SDS011;28369;44.046;23.014;2023-05-07T09:56:56;3.90;;;2.47;;
42724;SDS011;28369;44.046;23.014;2023-05-07T09:59:23;5.13;;;2.70;;
42724;SDS011;28369;44.046;23.014;2023-05-07T10:01:50;7.00;;;2.70;;
42724;SDS011;28369;44.046;23.014;2023-05-07T10:04:18;7.28;;;2.40;;
42724;SDS011;28369;44.046;23.014;2023-05-07T10:06:45;5.63;;;2.78;;
42724;SDS011;28369;44.046;23.014;2023-05-07T10:09:12;4.03;;;2.55;;
42724;SDS011;28369;44.046;23.014;2023-05-07T10:11:38;6.40;;;2.40;;
42724;SDS011;28369;44.046;23.014;2023-05-07T10:14:05;5.45;;;2.70;;
42724;SDS011;28369;44.046;23.014;2023-05-07T10:16:31;6.88;;;2.33;;
42724;SDS011;28369;44.046;23.014;2023-05-07T10:19:02;3.33;;;2.30;;
42724;SDS011;28369;44.046;23.014;2023-05-07T10:21:34;10.32;;;2.33;;
42724;SDS011;28369;44.046;23.014;2023-05-07T10:24:20;5.63;;;2.42;;
42724;SDS011;28369;44.046;23.014;2023-05-07T10:26:50;7.32;;;2.70;;
42724;SDS011;28369;44.046;23.014;2023-05-07T10:32:14;8.15;;;2.40;;
42724;SDS011;28369;44.046;23.014;2023-05-07T10:34:45;3.97;;;2.78;;
42724;SDS011;28369;44.046;23.014;2023-05-07T10:37:14;5.80;;;2.22;;
42724;SDS011;28369;44.046;23.014;2023-05-07T10:39:40;4.38;;;2.53;;
42724;SDS011;28369;44.046;23.014;2023-05-07T10:42:12;7.82;;;2.20;;
42724;SDS011;28369;44.046;23.014;2023-05-07T10:44:39;4.18;;;2.45;;
42724;SDS011;28369;44.046;23.014;2023-05-07T10:50:20;11.43;;;5.63;;
42724;SDS011;28369;44.046;23.014;2023-05-07T10:52:21;3.20;;;2.70;;
42724;SDS011;28369;44.046;23.014;2023-05-07T10:54:48;6.78;;;2.13;;
42724;SDS011;28369;44.046;23.014;2023-05-07T10:57:42;8.85;;;2.63;;
42724;SDS011;28369;44.046;23.014;2023-05-07T11:05:29;5.93;;;3.28;;
42724;SDS011;28369;44.046;23.014;2023-05-07T11:07:57;8.07;;;2.28;;
42724;SDS011;28369;44.046;23.014;2023-05-07T11:13:18;5.45;;;2.00;;
42724;SDS011;28369;44.046;23.014;2023-05-07T11:16:03;5.10;;;1.95;;
42724;SDS011;28369;44.046;23.014;2023-05-07T11:18:45;5.40;;;2.38;;
42724;SDS011;28369;44.046;23.014;2023-05-07T11:21:13;5.72;;;2.65;;
42724;SDS011;28369;44.046;23.014;2023-05-07T11:23:57;6.55;;;3.10;;
42724;SDS011;28369;44.046;23.014;2023-05-07T11:26:23;10.82;;;3.03;;
42724;SDS011;28369;44.046;23.014;2023-05-07T11:28:50;6.75;;;2.22;;
42724;SDS011;28369;44.046;23.014;2023-05-07T11:31:20;17.88;;;7.93;;
42724;SDS011;28369;44.046;23.014;2023-05-07T11:33:47;11.50;;;2.58;;
42724;SDS011;28369;44.046;23.014;2023-05-07T11:36:13;6.80;;;2.30;;
42724;SDS011;28369;44.046;23.014;2023-05-07T11:38:39;4.75;;;2.13;;
42724;SDS011;28369;44.046;23.014;2023-05-07T11:41:05;2.22;;;1.73;;
42724;SDS011;28369;44.046;23.014;2023-05-07T11:43:34;7.60;;;2.00;;
42724;SDS011;28369;44.046;23.014;2023-05-07T11:46:10;8.95;;;2.17;;
42724;SDS011;28369;44.046;23.014;2023-05-07T11:48:37;3.60;;;1.80;;
42724;SDS011;28369;44.046;23.014;2023-05-07T11:51:04;9.98;;;2.00;;
42724;SDS011;28369;44.046;23.014;2023-05-07T11:53:41;3.67;;;2.03;;
42724;SDS011;28369;44.046;23.014;2023-05-07T11:58:33;2.65;;;1.88;;
42724;SDS011;28369;44.046;23.014;2023-05-07T12:00:59;4.28;;;1.67;;
42724;SDS011;28369;44.046;23.014;2023-05-07T12:03:24;2.30;;;1.90;;
42724;SDS011;28369;44.046;23.014;2023-05-07T12:05:50;10.50;;;2.28;;
42724;SDS011;28369;44.046;23.014;2023-05-07T12:08:16;3.90;;;1.70;;
42724;SDS011;28369;44.046;23.014;2023-05-07T12:10:42;4.80;;;2.00;;
42724;SDS011;28369;44.046;23.014;2023-05-07T12:13:16;1.85;;;1.60;;
42724;SDS011;28369;44.046;23.014;2023-05-07T12:15:42;4.65;;;2.22;;
42724;SDS011;28369;44.046;23.014;2023-05-07T12:18:08;4.32;;;2.00;;
42724;SDS011;28369;44.046;23.014;2023-05-07T12:20:35;6.18;;;1.73;;
42724;SDS011;28369;44.046;23.014;2023-05-07T12:23:01;5.18;;;1.85;;
42724;SDS011;28369;44.046;23.014;2023-05-07T12:25:31;6.43;;;2.47;;
42724;SDS011;28369;44.046;23.014;2023-05-07T12:28:01;5.47;;;1.88;;
42724;SDS011;28369;44.046;23.014;2023-05-07T12:30:28;4.55;;;1.98;;
42724;SDS011;28369;44.046;23.014;2023-05-07T12:32:54;3.47;;;1.90;;
42724;SDS011;28369;44.046;23.014;2023-05-07T12:35:29;3.83;;;1.83;;
42724;SDS011;28369;44.046;23.014;2023-05-07T12:37:58;3.22;;;1.80;;
42724;SDS011;28369;44.046;23.014;2023-05-07T12:40:35;3.22;;;1.90;;
42724;SDS011;28369;44.046;23.014;2023-05-07T12:43:02;3.40;;;1.70;;
42724;SDS011;28369;44.046;23.014;2023-05-07T12:45:27;8.90;;;2.25;;
42724;SDS011;28369;44.046;23.014;2023-05-07T12:47:53;3.35;;;1.90;;
42724;SDS011;28369;44.046;23.014;2023-05-07T12:50:18;4.47;;;1.98;;
42724;SDS011;28369;44.046;23.014;2023-05-07T12:52:47;4.35;;;2.13;;
42724;SDS011;28369;44.046;23.014;2023-05-07T12:55:16;4.13;;;1.80;;
42724;SDS011;28369;44.046;23.014;2023-05-07T12:57:42;4.45;;;1.80;;
42724;SDS011;28369;44.046;23.014;2023-05-07T13:00:10;3.35;;;1.90;;
42724;SDS011;28369;44.046;23.014;2023-05-07T13:02:40;2.50;;;1.90;;
42724;SDS011;28369;44.046;23.014;2023-05-07T13:05:09;6.55;;;1.85;;
42724;SDS011;28369;44.046;23.014;2023-05-07T13:07:35;5.53;;;1.83;;
42724;SDS011;28369;44.046;23.014;2023-05-07T13:10:01;5.45;;;2.10;;
42724;SDS011;28369;44.046;23.014;2023-05-07T13:12:27;5.15;;;1.88;;
42724;SDS011;28369;44.046;23.014;2023-05-07T13:14:53;4.25;;;2.30;;
42724;SDS011;28369;44.046;23.014;2023-05-07T13:17:18;8.52;;;1.92;;
42724;SDS011;28369;44.046;23.014;2023-05-07T13:19:44;4.68;;;2.08;;
42724;SDS011;28369;44.046;23.014;2023-05-07T13:22:09;4.15;;;1.98;;
42724;SDS011;28369;44.046;23.014;2023-05-07T13:24:35;5.13;;;2.00;;
42724;SDS011;28369;44.046;23.014;2023-05-07T13:27:01;4.68;;;2.05;;
42724;SDS011;28369;44.046;23.014;2023-05-07T13:29:26;4.57;;;2.08;;
42724;SDS011;28369;44.046;23.014;2023-05-07T13:31:58;4.30;;;1.92;;
42724;SDS011;28369;44.046;23.014;2023-05-07T13:34:24;6.78;;;1.88;;
42724;SDS011;28369;44.046;23.014;2023-05-07T13:36:50;6.70;;;2.10;;
42724;SDS011;28369;44.046;23.014;2023-05-07T13:39:16;3.58;;;1.70;;
42724;SDS011;28369;44.046;23.014;2023-05-07T13:41:41;7.13;;;1.95;;
42724;SDS011;28369;44.046;23.014;2023-05-07T13:44:07;12.85;;;2.05;;
42724;SDS011;28369;44.046;23.014;2023-05-07T13:46:32;4.80;;;1.73;;
42724;SDS011;28369;44.046;23.014;2023-05-07T13:48:58;3.88;;;1.85;;
42724;SDS011;28369;44.046;23.014;2023-05-07T13:51:23;5.05;;;2.00;;
42724;SDS011;28369;44.046;23.014;2023-05-07T13:53:49;4.60;;;2.10;;
42724;SDS011;28369;44.046;23.014;2023-05-07T13:56:15;3.20;;;1.77;;
42724;SDS011;28369;44.046;23.014;2023-05-07T13:58:40;4.40;;;1.75;;
42724;SDS011;28369;44.046;23.014;2023-05-07T14:01:06;3.78;;;1.73;;
42724;SDS011;28369;44.046;23.014;2023-05-07T14:03:31;5.30;;;1.80;;
42724;SDS011;28369;44.046;23.014;2023-05-07T14:05:59;8.88;;;2.22;;
42724;SDS011;28369;44.046;23.014;2023-05-07T14:08:26;2.80;;;1.70;;
42724;SDS011;28369;44.046;23.014;2023-05-07T14:10:52;6.63;;;2.00;;
42724;SDS011;28369;44.046;23.014;2023-05-07T14:13:18;5.53;;;2.08;;
42724;SDS011;28369;44.046;23.014;2023-05-07T14:15:44;1.92;;;1.50;;
42724;SDS011;28369;44.046;23.014;2023-05-07T14:18:12;4.78;;;1.80;;
42724;SDS011;28369;44.046;23.014;2023-05-07T14:20:38;5.53;;;2.00;;
42724;SDS011;28369;44.046;23.014;2023-05-07T14:23:03;3.72;;;2.00;;
42724;SDS011;28369;44.046;23.014;2023-05-07T14:25:29;4.07;;;1.75;;
42724;SDS011;28369;44.046;23.014;2023-05-07T14:27:54;3.50;;;1.88;;
42724;SDS011;28369;44.046;23.014;2023-05-07T14:30:20;4.40;;;2.10;;
42724;SDS011;28369;44.046;23.014;2023-05-07T14:32:47;2.10;;;1.83;;
42724;SDS011;28369;44.046;23.014;2023-05-07T14:35:12;3.33;;;1.98;;
42724;SDS011;28369;44.046;23.014;2023-05-07T14:37:38;5.85;;;1.75;;
42724;SDS011;28369;44.046;23.014;2023-05-07T14:40:03;5.13;;;1.75;;
42724;SDS011;28369;44.046;23.014;2023-05-07T14:42:29;3.42;;;1.60;;
42724;SDS011;28369;44.046;23.014;2023-05-07T14:44:55;2.50;;;1.95;;
42724;SDS011;28369;44.046;23.014;2023-05-07T14:47:20;4.40;;;1.70;;